Sunflower Hakata — JL6711 — position and weather

sailwx.info

Track history (hours):
 
Tides and Currents Weather Stations Pressure Air Temp Water Temp Dewpoint Dewpoint Depression Visibility Wind Speed Wind Dir Waves Ship Positions

Sunflower Hakata

Last reported at 2014-Sep-02 01:31 UTC. Time now 2014-Sep-02 02:10 UTC.
Position N 35°37' E 139°48'.

Length 194 m; draft 6.5 m.

Type: Cargo ship. MMSI: 431501764.

Date/timePositionNaut miles runAvg speedWind from/ knotsBaromVisibWave heightAir tempDewpointWater temp
2014-Sep-02 01:31N 35°37' E 139°48'0 0.0
2014-Sep-02 00:31N 35°37' E 139°48'0 0.0
2014-Sep-01 23:25N 35°37' E 139°48'0 0.2
2014-Sep-01 22:28N 35°37' E 139°48'0 0.0
2014-Sep-01 21:31N 35°37' E 139°48'0 0.0
2014-Sep-01 20:31N 35°37' E 139°48'0 0.0
2014-Sep-01 19:31N 35°37' E 139°48'0 0.0
2014-Sep-01 18:31N 35°37' E 139°48'0 0.0
2014-Sep-01 17:31N 35°37' E 139°48'0 0.0
2014-Sep-01 16:31N 35°37' E 139°48'0 0.0
2014-Sep-01 15:31N 35°37' E 139°48'0 0.0
2014-Sep-01 14:31N 35°37' E 139°48'0 0.0
2014-Sep-01 13:31N 35°37' E 139°48'0 0.0
2014-Sep-01 12:31N 35°37' E 139°48'0 0.0
2014-Sep-01 11:31N 35°37' E 139°48'0 0.0
2014-Sep-01 10:31N 35°37' E 139°48'0 0.0
2014-Sep-01 09:31N 35°37' E 139°48'0 0.0
2014-Sep-01 08:28N 35°37' E 139°48'0 0.0
2014-Sep-01 07:31N 35°37' E 139°48'0 0.0
2014-Sep-01 06:31N 35°37' E 139°48'0 0.0
2014-Sep-01 05:32N 35°37' E 139°48'0 0.0
2014-Sep-01 04:31N 35°37' E 139°48'0 0.0
2014-Sep-01 03:31N 35°37' E 139°48'0 0.0
2014-Sep-01 02:25N 35°37' E 139°48'0 0.0
2014-Sep-01 01:31N 35°37' E 139°48'0 0.0
2014-Sep-01 00:31N 35°37' E 139°48'0 0.0
2014-Aug-31 23:31N 35°37' E 139°48'0 0.0
2014-Aug-31 22:28N 35°37' E 139°48'0 0.0
2014-Aug-31 21:31N 35°37' E 139°48'0 0.0
2014-Aug-31 20:33N 35°37' E 139°48'7 7.2
2014-Aug-31 19:34N 35°31' E 139°52'1414.1
2014-Aug-31 18:33N 35°18' E 139°45'1515.0
2014-Aug-31 17:33N 35°03' E 139°41'2321.8
2014-Aug-31 16:29N 34°49' E 139°18'4621.5
2014-Aug-31 14:23N 34°26' E 138°31'17918.1
2014-Aug-31 04:30N 33°54' E 134°58'2021.3
2014-Aug-31 03:33N 34°14' E 134°58'2020.3
2014-Aug-31 02:33N 34°34' E 135°03'1816.6
2014-Aug-31 01:29N 34°32' E 134°41'10411.6
2014-Aug-30 16:33N 33°57' E 132°43'2421.6
2014-Aug-30 15:28N 33°44' E 132°19'312 6.8
2014-Aug-28 17:22N 34°30' E 138°33'3618.5
2014-Aug-28 15:24N 34°45' E 139°12'1719.8
2014-Aug-28 14:33N 34°57' E 139°27'2020.0
2014-Aug-28 13:33N 35°10' E 139°45'1413.8
2014-Aug-28 12:33N 35°24' E 139°43'1413.6
2014-Aug-28 11:33N 35°37' E 139°48'0 0.2
2014-Aug-28 10:33N 35°37' E 139°48'0 0.0
2014-Aug-28 09:33N 35°37' E 139°48'0 0.0
2014-Aug-28 08:33N 35°37' E 139°48'0 0.0
2014-Aug-28 07:33N 35°37' E 139°48'0 0.0
2014-Aug-28 06:30N 35°37' E 139°48'0 0.0
2014-Aug-28 05:27N 35°37' E 139°48'0 0.0
2014-Aug-28 04:33N 35°37' E 139°48'0 0.0
2014-Aug-28 03:33N 35°37' E 139°48'0 0.0
2014-Aug-28 02:30N 35°37' E 139°48'0 0.0
2014-Aug-28 01:33N 35°37' E 139°48'0 0.0
2014-Aug-28 00:33N 35°37' E 139°48'0 0.0
2014-Aug-27 23:33N 35°37' E 139°48'0 0.0
2014-Aug-27 22:15N 35°37' E 139°48'0 0.0
2014-Aug-27 21:28N 35°37' E 139°48'0 0.1
2014-Aug-27 20:33N 35°37' E 139°47'1111.3
2014-Aug-27 19:33N 35°26' E 139°49'1211.5
2014-Aug-27 18:34N 35°14' E 139°47'1918.6
2014-Aug-27 17:33N 34°59' E 139°34'23619.1
2014-Aug-27 05:11N 33°53' E 134°59'1423.2
2014-Aug-27 04:34N 34°07' E 134°58'2423.4
2014-Aug-27 03:33N 34°31' E 135°02'1514.5
2014-Aug-27 02:32N 34°32' E 134°44'  
2014-Aug-23 03:32N 35°37' E 139°48'0 0.0
2014-Aug-23 02:23N 35°37' E 139°48'0 0.0
2014-Aug-23 01:32N 35°37' E 139°48'  
Track history (hours):
 
Tides and Currents Weather Stations Pressure Air Temp Water Temp Dewpoint Dewpoint Depression Visibility Wind Speed Wind Dir Waves Ship Positions

Sunflower Hakata

Last reported at 2014-Sep-02 01:31 UTC. Time now 2014-Sep-02 02:10 UTC.
Position N 35°37' E 139°48'.

Length 194 m; draft 6.5 m.

Type: Cargo ship. MMSI: 431501764.

Date/timePositionNaut miles runAvg speedWind from/ knotsBaromVisibWave heightAir tempDewpointWater temp
2014-Sep-02 01:31N 35°37' E 139°48'0 0.0
2014-Sep-02 00:31N 35°37' E 139°48'0 0.0
2014-Sep-01 23:25N 35°37' E 139°48'0 0.2
2014-Sep-01 22:28N 35°37' E 139°48'0 0.0
2014-Sep-01 21:31N 35°37' E 139°48'0 0.0
2014-Sep-01 20:31N 35°37' E 139°48'0 0.0
2014-Sep-01 19:31N 35°37' E 139°48'0 0.0
2014-Sep-01 18:31N 35°37' E 139°48'0 0.0
2014-Sep-01 17:31N 35°37' E 139°48'0 0.0
2014-Sep-01 16:31N 35°37' E 139°48'0 0.0
2014-Sep-01 15:31N 35°37' E 139°48'0 0.0
2014-Sep-01 14:31N 35°37' E 139°48'0 0.0
2014-Sep-01 13:31N 35°37' E 139°48'0 0.0
2014-Sep-01 12:31N 35°37' E 139°48'0 0.0
2014-Sep-01 11:31N 35°37' E 139°48'0 0.0
2014-Sep-01 10:31N 35°37' E 139°48'0 0.0
2014-Sep-01 09:31N 35°37' E 139°48'0 0.0
2014-Sep-01 08:28N 35°37' E 139°48'0 0.0
2014-Sep-01 07:31N 35°37' E 139°48'0 0.0
2014-Sep-01 06:31N 35°37' E 139°48'0 0.0
2014-Sep-01 05:32N 35°37' E 139°48'0 0.0
2014-Sep-01 04:31N 35°37' E 139°48'0 0.0
2014-Sep-01 03:31N 35°37' E 139°48'0 0.0
2014-Sep-01 02:25N 35°37' E 139°48'0 0.0
2014-Sep-01 01:31N 35°37' E 139°48'0 0.0
2014-Sep-01 00:31N 35°37' E 139°48'0 0.0
2014-Aug-31 23:31N 35°37' E 139°48'0 0.0
2014-Aug-31 22:28N 35°37' E 139°48'0 0.0
2014-Aug-31 21:31N 35°37' E 139°48'0 0.0
2014-Aug-31 20:33N 35°37' E 139°48'7 7.2
2014-Aug-31 19:34N 35°31' E 139°52'1414.1
2014-Aug-31 18:33N 35°18' E 139°45'1515.0
2014-Aug-31 17:33N 35°03' E 139°41'2321.8
2014-Aug-31 16:29N 34°49' E 139°18'4621.5
2014-Aug-31 14:23N 34°26' E 138°31'17918.1
2014-Aug-31 04:30N 33°54' E 134°58'2021.3
2014-Aug-31 03:33N 34°14' E 134°58'2020.3
2014-Aug-31 02:33N 34°34' E 135°03'1816.6
2014-Aug-31 01:29N 34°32' E 134°41'10411.6
2014-Aug-30 16:33N 33°57' E 132°43'2421.6
2014-Aug-30 15:28N 33°44' E 132°19'312 6.8
2014-Aug-28 17:22N 34°30' E 138°33'3618.5
2014-Aug-28 15:24N 34°45' E 139°12'1719.8
2014-Aug-28 14:33N 34°57' E 139°27'2020.0
2014-Aug-28 13:33N 35°10' E 139°45'1413.8
2014-Aug-28 12:33N 35°24' E 139°43'1413.6
2014-Aug-28 11:33N 35°37' E 139°48'0 0.2
2014-Aug-28 10:33N 35°37' E 139°48'0 0.0
2014-Aug-28 09:33N 35°37' E 139°48'0 0.0
2014-Aug-28 08:33N 35°37' E 139°48'0 0.0
2014-Aug-28 07:33N 35°37' E 139°48'0 0.0
2014-Aug-28 06:30N 35°37' E 139°48'0 0.0
2014-Aug-28 05:27N 35°37' E 139°48'0 0.0
2014-Aug-28 04:33N 35°37' E 139°48'0 0.0
2014-Aug-28 03:33N 35°37' E 139°48'0 0.0
2014-Aug-28 02:30N 35°37' E 139°48'0 0.0
2014-Aug-28 01:33N 35°37' E 139°48'0 0.0
2014-Aug-28 00:33N 35°37' E 139°48'0 0.0
2014-Aug-27 23:33N 35°37' E 139°48'0 0.0
2014-Aug-27 22:15N 35°37' E 139°48'0 0.0
2014-Aug-27 21:28N 35°37' E 139°48'0 0.1
2014-Aug-27 20:33N 35°37' E 139°47'1111.3
2014-Aug-27 19:33N 35°26' E 139°49'1211.5
2014-Aug-27 18:34N 35°14' E 139°47'1918.6
2014-Aug-27 17:33N 34°59' E 139°34'23619.1
2014-Aug-27 05:11N 33°53' E 134°59'1423.2
2014-Aug-27 04:34N 34°07' E 134°58'2423.4
2014-Aug-27 03:33N 34°31' E 135°02'1514.5
2014-Aug-27 02:32N 34°32' E 134°44'  
2014-Aug-23 03:32N 35°37' E 139°48'0 0.0
2014-Aug-23 02:23N 35°37' E 139°48'0 0.0
2014-Aug-23 01:32N 35°37' E 139°48'  

Dump ship's entire track history